sensor_id;sensor_type;location;lat;lon;timestamp;pressure;altitude;pressure_sealevel;temperature;humidity
48892;BME280;50130;52.150;5.236;2022-12-18T00:01:00;102655.0;;;-1.43;91.41
48892;BME280;50130;52.150;5.236;2022-12-18T00:04:18;102651.0;;;-1.28;90.88
48892;BME280;50130;52.150;5.236;2022-12-18T00:05:58;102648.0;;;-1.32;91.06
48892;BME280;50130;52.150;5.236;2022-12-18T00:07:35;102641.00000000001;;;-1.47;91.32
48892;BME280;50130;52.150;5.236;2022-12-18T00:10:48;102638.00000000001;;;-1.48;91.52
48892;BME280;50130;52.150;5.236;2022-12-18T00:12:24;102632.0;;;-1.53;91.66
48892;BME280;50130;52.150;5.236;2022-12-18T00:15:37;102625.0;;;-1.63;91.7
48892;BME280;50130;52.150;5.236;2022-12-18T00:20:35;102630.0;;;-1.57;91.37
48892;BME280;50130;52.150;5.236;2022-12-18T00:22:12;102631.0;;;-1.56;91.4
48892;BME280;50130;52.150;5.236;2022-12-18T00:25:26;102634.99999999999;;;-1.67;91.09
48892;BME280;50130;52.150;5.236;2022-12-18T00:27:03;102641.00000000001;;;-1.65;91.2
48892;BME280;50130;52.150;5.236;2022-12-18T00:28:39;102645.0;;;-1.62;90.85
48892;BME280;50130;52.150;5.236;2022-12-18T00:30:15;102642.0;;;-1.55;90.76
48892;BME280;50130;52.150;5.236;2022-12-18T00:33:28;102630.0;;;-1.61;90.7
48892;BME280;50130;52.150;5.236;2022-12-18T00:35:06;102627.0;;;-1.72;90.69
48892;BME280;50130;52.150;5.236;2022-12-18T00:36:43;102626.0;;;-1.67;90.58
48892;BME280;50130;52.150;5.236;2022-12-18T00:39:55;102625.0;;;-1.69;90.98
48892;BME280;50130;52.150;5.236;2022-12-18T00:41:32;102624.0;;;-1.64;90.8
48892;BME280;50130;52.150;5.236;2022-12-18T00:43:08;102623.0;;;-1.86;91.32
48892;BME280;50130;52.150;5.236;2022-12-18T00:46:21;102621.0;;;-1.81;91.25
48892;BME280;50130;52.150;5.236;2022-12-18T00:47:57;102620.0;;;-1.95;91.67
48892;BME280;50130;52.150;5.236;2022-12-18T00:49:33;102622.0;;;-1.9;91.63
48892;BME280;50130;52.150;5.236;2022-12-18T00:51:09;102628.0;;;-2.0;92.14
48892;BME280;50130;52.150;5.236;2022-12-18T00:54:22;102627.0;;;-2.0;91.95
48892;BME280;50130;52.150;5.236;2022-12-18T00:55:59;102634.99999999999;;;-2.11;92.27
48892;BME280;50130;52.150;5.236;2022-12-18T00:57:35;102633.0;;;-2.06;92.58
48892;BME280;50130;52.150;5.236;2022-12-18T01:00:47;102629.0;;;-1.95;92.18
48892;BME280;50130;52.150;5.236;2022-12-18T01:02:24;102633.0;;;-1.92;91.92
48892;BME280;50130;52.150;5.236;2022-12-18T01:04:01;102626.0;;;-1.93;91.82
48892;BME280;50130;52.150;5.236;2022-12-18T01:07:15;102625.0;;;-1.83;91.35
48892;BME280;50130;52.150;5.236;2022-12-18T01:08:52;102626.0;;;-1.85;91.43
48892;BME280;50130;52.150;5.236;2022-12-18T01:10:28;102629.0;;;-1.76;91.25
48892;BME280;50130;52.150;5.236;2022-12-18T01:12:05;102627.0;;;-1.98;91.08
48892;BME280;50130;52.150;5.236;2022-12-18T01:15:20;102626.0;;;-1.85;90.95
48892;BME280;50130;52.150;5.236;2022-12-18T01:16:55;102630.0;;;-1.77;90.83
48892;BME280;50130;52.150;5.236;2022-12-18T01:18:31;102628.0;;;-1.77;90.35
48892;BME280;50130;52.150;5.236;2022-12-18T01:21:47;102626.0;;;-1.76;90.42
48892;BME280;50130;52.150;5.236;2022-12-18T01:23:23;102627.0;;;-1.98;90.6
48892;BME280;50130;52.150;5.236;2022-12-18T01:25:03;102633.0;;;-1.98;90.89
48892;BME280;50130;52.150;5.236;2022-12-18T01:29:53;102633.99999999999;;;-1.96;90.62
48892;BME280;50130;52.150;5.236;2022-12-18T01:31:31;102633.99999999999;;;-2.11;91.11
48892;BME280;50130;52.150;5.236;2022-12-18T01:33:09;102634.99999999999;;;-2.15;91.75
48892;BME280;50130;52.150;5.236;2022-12-18T01:36:23;102639.00000000001;;;-2.09;91.62
48892;BME280;50130;52.150;5.236;2022-12-18T01:38:01;102639.00000000001;;;-2.09;91.31
48892;BME280;50130;52.150;5.236;2022-12-18T01:39:37;102638.00000000001;;;-2.03;91.16
48892;BME280;50130;52.150;5.236;2022-12-18T01:42:55;102638.00000000001;;;-2.06;90.97
48892;BME280;50130;52.150;5.236;2022-12-18T01:44:54;102639.00000000001;;;-2.14;91.21
48892;BME280;50130;52.150;5.236;2022-12-18T01:46:57;102641.00000000001;;;-2.08;91.0
48892;BME280;50130;52.150;5.236;2022-12-18T01:48:33;102631.0;;;-2.14;91.53
48892;BME280;50130;52.150;5.236;2022-12-18T01:50:13;102642.0;;;-2.13;91.43
48892;BME280;50130;52.150;5.236;2022-12-18T01:51:50;102648.0;;;-2.16;91.94
48892;BME280;50130;52.150;5.236;2022-12-18T01:55:05;102645.0;;;-2.19;91.77
48892;BME280;50130;52.150;5.236;2022-12-18T01:56:42;102643.0;;;-2.04;91.27
48892;BME280;50130;52.150;5.236;2022-12-18T01:58:20;102648.0;;;-2.11;91.29
48892;BME280;50130;52.150;5.236;2022-12-18T02:01:43;102656.0;;;-2.08;91.13
48892;BME280;50130;52.150;5.236;2022-12-18T02:03:19;102655.0;;;-2.09;90.99
48892;BME280;50130;52.150;5.236;2022-12-18T02:04:56;102656.0;;;-2.14;90.94
48892;BME280;50130;52.150;5.236;2022-12-18T02:06:35;102656.0;;;-2.14;91.05
48892;BME280;50130;52.150;5.236;2022-12-18T02:10:06;102656.0;;;-2.16;91.06
48892;BME280;50130;52.150;5.236;2022-12-18T02:11:50;102661.99999999999;;;-2.04;90.82
48892;BME280;50130;52.150;5.236;2022-12-18T02:13:37;102659.99999999999;;;-2.2;90.85
48892;BME280;50130;52.150;5.236;2022-12-18T02:15:24;102664.00000000001;;;-2.11;90.62
48892;BME280;50130;52.150;5.236;2022-12-18T02:17:06;102663.00000000001;;;-2.02;90.29
48892;BME280;50130;52.150;5.236;2022-12-18T02:20:34;102670.0;;;-2.01;90.01
48892;BME280;50130;52.150;5.236;2022-12-18T02:22:24;102676.0;;;-2.15;90.01
48892;BME280;50130;52.150;5.236;2022-12-18T02:24:17;102673.0;;;-2.31;90.23
48892;BME280;50130;52.150;5.236;2022-12-18T02:26:06;102672.0;;;-2.45;90.62
48892;BME280;50130;52.150;5.236;2022-12-18T02:27:48;102675.0;;;-2.56;90.82
48892;BME280;50130;52.150;5.236;2022-12-18T02:29:30;102679.0;;;-2.52;90.93
48892;BME280;50130;52.150;5.236;2022-12-18T02:32:53;102666.00000000001;;;-2.63;90.22
48892;BME280;50130;52.150;5.236;2022-12-18T02:34:32;102667.0;;;-2.64;90.02
48892;BME280;50130;52.150;5.236;2022-12-18T02:36:15;102668.0;;;-2.73;90.09
48892;BME280;50130;52.150;5.236;2022-12-18T02:37:53;102665.00000000001;;;-2.83;90.23
48892;BME280;50130;52.150;5.236;2022-12-18T02:41:09;102664.00000000001;;;-2.96;90.2
48892;BME280;50130;52.150;5.236;2022-12-18T02:42:46;102665.00000000001;;;-2.98;90.08
48892;BME280;50130;52.150;5.236;2022-12-18T02:44:22;102657.0;;;-3.06;89.95
48892;BME280;50130;52.150;5.236;2022-12-18T02:47:56;102650.0;;;-3.12;89.83
48892;BME280;50130;52.150;5.236;2022-12-18T02:49:38;102642.0;;;-3.21;89.76
48892;BME280;50130;52.150;5.236;2022-12-18T02:51:24;102636.99999999999;;;-3.28;89.75
48892;BME280;50130;52.150;5.236;2022-12-18T02:53:10;102638.00000000001;;;-3.35;89.76
48892;BME280;50130;52.150;5.236;2022-12-18T02:54:59;102640.00000000001;;;-3.39;90.01
48892;BME280;50130;52.150;5.236;2022-12-18T02:56:46;102632.0;;;-3.4;89.86
48892;BME280;50130;52.150;5.236;2022-12-18T03:00:13;102632.0;;;-3.48;89.64
48892;BME280;50130;52.150;5.236;2022-12-18T03:01:53;102627.0;;;-3.55;89.69
48892;BME280;50130;52.150;5.236;2022-12-18T03:03:37;102624.0;;;-3.55;89.56
48892;BME280;50130;52.150;5.236;2022-12-18T03:05:17;102629.0;;;-3.54;89.06
48892;BME280;50130;52.150;5.236;2022-12-18T03:08:44;102630.0;;;-3.63;89.11
48892;BME280;50130;52.150;5.236;2022-12-18T03:10:26;102626.0;;;-3.72;89.55
48892;BME280;50130;52.150;5.236;2022-12-18T03:12:09;102621.0;;;-3.81;89.97
48892;BME280;50130;52.150;5.236;2022-12-18T03:13:52;102626.0;;;-3.85;89.86
48892;BME280;50130;52.150;5.236;2022-12-18T03:15:35;102615.00000000001;;;-3.89;89.9
48892;BME280;50130;52.150;5.236;2022-12-18T03:18:58;102614.00000000001;;;-4.02;89.97
48892;BME280;50130;52.150;5.236;2022-12-18T03:20:37;102609.99999999999;;;-4.09;90.0
48892;BME280;50130;52.150;5.236;2022-12-18T03:22:20;102607.0;;;-4.03;90.12
48892;BME280;50130;52.150;5.236;2022-12-18T03:23:59;102599.0;;;-4.03;89.75
48892;BME280;50130;52.150;5.236;2022-12-18T03:27:20;102593.0;;;-4.05;89.49
48892;BME280;50130;52.150;5.236;2022-12-18T03:29:04;102594.0;;;-4.12;89.41
48892;BME280;50130;52.150;5.236;2022-12-18T03:30:44;102598.0;;;-4.19;89.46
48892;BME280;50130;52.150;5.236;2022-12-18T03:32:26;102594.0;;;-4.09;89.18
48892;BME280;50130;52.150;5.236;2022-12-18T03:35:49;102590.00000000001;;;-4.16;89.01
48892;BME280;50130;52.150;5.236;2022-12-18T03:37:26;102586.99999999999;;;-4.28;88.95
48892;BME280;50130;52.150;5.236;2022-12-18T03:39:02;102580.0;;;-4.3;88.83
48892;BME280;50130;52.150;5.236;2022-12-18T03:40:53;102582.0;;;-4.38;88.61
48892;BME280;50130;52.150;5.236;2022-12-18T03:44:27;102581.0;;;-4.44;88.89
48892;BME280;50130;52.150;5.236;2022-12-18T03:46:13;102584.99999999999;;;-4.46;88.84
48892;BME280;50130;52.150;5.236;2022-12-18T03:47:59;102580.0;;;-4.5;88.92
48892;BME280;50130;52.150;5.236;2022-12-18T03:49:43;102581.0;;;-4.5;88.71
48892;BME280;50130;52.150;5.236;2022-12-18T03:51:25;102576.0;;;-4.52;88.38
48892;BME280;50130;52.150;5.236;2022-12-18T03:53:14;102579.0;;;-4.56;88.01
48892;BME280;50130;52.150;5.236;2022-12-18T03:56:38;102579.0;;;-4.57;88.08
48892;BME280;50130;52.150;5.236;2022-12-18T03:58:18;102574.0;;;-4.59;88.35
48892;BME280;50130;52.150;5.236;2022-12-18T04:00:01;102571.0;;;-4.59;88.04
48892;BME280;50130;52.150;5.236;2022-12-18T04:01:40;102568.0;;;-4.65;88.07
48892;BME280;50130;52.150;5.236;2022-12-18T04:04:59;102566.00000000001;;;-4.68;87.74
48892;BME280;50130;52.150;5.236;2022-12-18T04:06:38;102561.99999999999;;;-4.71;87.2
48892;BME280;50130;52.150;5.236;2022-12-18T04:08:16;102559.99999999999;;;-4.74;87.49
48892;BME280;50130;52.150;5.236;2022-12-18T04:09:55;102550.0;;;-4.81;87.94
48892;BME280;50130;52.150;5.236;2022-12-18T04:13:09;102547.0;;;-4.82;87.88
48892;BME280;50130;52.150;5.236;2022-12-18T04:14:45;102543.0;;;-4.88;88.2
48892;BME280;50130;52.150;5.236;2022-12-18T04:16:21;102538.00000000001;;;-4.91;88.24
48892;BME280;50130;52.150;5.236;2022-12-18T04:19:33;102539.00000000001;;;-4.8;88.04
48892;BME280;50130;52.150;5.236;2022-12-18T04:21:10;102540.00000000001;;;-4.84;87.91
48892;BME280;50130;52.150;5.236;2022-12-18T04:22:47;102542.0;;;-4.86;87.54
48892;BME280;50130;52.150;5.236;2022-12-18T04:26:00;102542.0;;;-4.91;87.32
48892;BME280;50130;52.150;5.236;2022-12-18T04:27:36;102545.0;;;-4.97;87.51
48892;BME280;50130;52.150;5.236;2022-12-18T04:29:12;102543.0;;;-5.01;87.46
48892;BME280;50130;52.150;5.236;2022-12-18T04:30:49;102543.0;;;-5.03;87.47
48892;BME280;50130;52.150;5.236;2022-12-18T04:34:01;102536.99999999999;;;-5.01;87.56
48892;BME280;50130;52.150;5.236;2022-12-18T04:35:37;102542.0;;;-5.05;87.42
48892;BME280;50130;52.150;5.236;2022-12-18T04:37:13;102550.0;;;-5.01;87.62
48892;BME280;50130;52.150;5.236;2022-12-18T04:40:25;102549.0;;;-5.01;87.52
48892;BME280;50130;52.150;5.236;2022-12-18T04:42:02;102550.0;;;-4.95;87.19
48892;BME280;50130;52.150;5.236;2022-12-18T04:43:38;102565.00000000001;;;-5.05;87.63
48892;BME280;50130;52.150;5.236;2022-12-18T04:46:50;102575.0;;;-5.04;87.49
48892;BME280;50130;52.150;5.236;2022-12-18T04:48:26;102570.0;;;-5.0;87.68
48892;BME280;50130;52.150;5.236;2022-12-18T04:50:03;102577.0;;;-5.11;87.79
48892;BME280;50130;52.150;5.236;2022-12-18T04:51:40;102580.0;;;-5.1;87.56
48892;BME280;50130;52.150;5.236;2022-12-18T04:54:52;102582.0;;;-5.15;87.68
48892;BME280;50130;52.150;5.236;2022-12-18T04:56:30;102583.0;;;-5.18;87.9
48892;BME280;50130;52.150;5.236;2022-12-18T04:58:07;102581.0;;;-5.17;87.8
48892;BME280;50130;52.150;5.236;2022-12-18T05:01:19;102586.99999999999;;;-5.18;87.65
48892;BME280;50130;52.150;5.236;2022-12-18T05:02:55;102596.0;;;-5.21;87.78
48892;BME280;50130;52.150;5.236;2022-12-18T05:04:31;102595.0;;;-5.19;87.98
48892;BME280;50130;52.150;5.236;2022-12-18T05:07:45;102596.0;;;-5.24;87.68
48892;BME280;50130;52.150;5.236;2022-12-18T05:09:21;102597.0;;;-5.22;87.66
48892;BME280;50130;52.150;5.236;2022-12-18T05:11:00;102595.0;;;-5.31;87.32
48892;BME280;50130;52.150;5.236;2022-12-18T05:12:37;102598.0;;;-5.28;87.38
48892;BME280;50130;52.150;5.236;2022-12-18T05:15:51;102605.0;;;-5.28;86.85
48892;BME280;50130;52.150;5.236;2022-12-18T05:17:28;102606.0;;;-5.29;86.52
48892;BME280;50130;52.150;5.236;2022-12-18T05:19:04;102604.0;;;-5.29;86.26
48892;BME280;50130;52.150;5.236;2022-12-18T05:22:17;102604.0;;;-5.36;86.24
48892;BME280;50130;52.150;5.236;2022-12-18T05:23:53;102604.0;;;-5.35;86.36
48892;BME280;50130;52.150;5.236;2022-12-18T05:25:29;102613.00000000001;;;-5.35;86.32
48892;BME280;50130;52.150;5.236;2022-12-18T05:28:41;102623.0;;;-5.4;86.19
48892;BME280;50130;52.150;5.236;2022-12-18T05:30:18;102620.0;;;-5.39;85.95
48892;BME280;50130;52.150;5.236;2022-12-18T05:31:54;102622.0;;;-5.42;86.1
48892;BME280;50130;52.150;5.236;2022-12-18T05:33:32;102619.0;;;-5.43;85.96
48892;BME280;50130;52.150;5.236;2022-12-18T05:36:48;102621.0;;;-5.45;85.78
48892;BME280;50130;52.150;5.236;2022-12-18T05:38:26;102615.00000000001;;;-5.53;86.05
48892;BME280;50130;52.150;5.236;2022-12-18T05:40:03;102606.0;;;-5.58;85.85
48892;BME280;50130;52.150;5.236;2022-12-18T05:43:17;102608.0;;;-5.71;86.1
48892;BME280;50130;52.150;5.236;2022-12-18T05:44:53;102593.0;;;-5.76;86.63
48892;BME280;50130;52.150;5.236;2022-12-18T05:46:30;102597.0;;;-5.79;86.39
48892;BME280;50130;52.150;5.236;2022-12-18T05:49:43;102592.0;;;-5.8;86.64
48892;BME280;50130;52.150;5.236;2022-12-18T05:51:21;102593.0;;;-5.84;86.64
48892;BME280;50130;52.150;5.236;2022-12-18T05:52:57;102594.0;;;-5.79;86.73
48892;BME280;50130;52.150;5.236;2022-12-18T05:54:34;102592.0;;;-5.77;86.17
48892;BME280;50130;52.150;5.236;2022-12-18T05:57:50;102589.00000000001;;;-5.73;86.26
48892;BME280;50130;52.150;5.236;2022-12-18T05:59:26;102586.99999999999;;;-5.81;85.91
48892;BME280;50130;52.150;5.236;2022-12-18T06:01:07;102579.0;;;-5.85;85.68
48892;BME280;50130;52.150;5.236;2022-12-18T06:04:23;102575.0;;;-5.83;85.5
48892;BME280;50130;52.150;5.236;2022-12-18T06:05:59;102578.0;;;-5.84;85.54
48892;BME280;50130;52.150;5.236;2022-12-18T06:07:35;102573.0;;;-5.86;85.23
48892;BME280;50130;52.150;5.236;2022-12-18T06:09:11;102574.0;;;-5.97;84.93
48892;BME280;50130;52.150;5.236;2022-12-18T06:12:27;102569.0;;;-6.06;85.39
48892;BME280;50130;52.150;5.236;2022-12-18T06:14:04;102566.00000000001;;;-6.08;86.13
48892;BME280;50130;52.150;5.236;2022-12-18T06:15:41;102567.0;;;-6.13;86.18
48892;BME280;50130;52.150;5.236;2022-12-18T06:18:56;102565.00000000001;;;-6.06;85.96
48892;BME280;50130;52.150;5.236;2022-12-18T06:20:32;102558.99999999999;;;-5.99;85.92
48892;BME280;50130;52.150;5.236;2022-12-18T06:22:08;102556.0;;;-6.02;85.62
48892;BME280;50130;52.150;5.236;2022-12-18T06:25:20;102564.00000000001;;;-5.96;85.48
48892;BME280;50130;52.150;5.236;2022-12-18T06:26:56;102553.0;;;-6.02;85.1
48892;BME280;50130;52.150;5.236;2022-12-18T06:28:33;102555.0;;;-6.05;85.28
48892;BME280;50130;52.150;5.236;2022-12-18T06:30:10;102558.0;;;-6.0;85.25
48892;BME280;50130;52.150;5.236;2022-12-18T06:33:26;102557.0;;;-6.02;85.37
48892;BME280;50130;52.150;5.236;2022-12-18T06:35:03;102561.99999999999;;;-6.03;85.65
48892;BME280;50130;52.150;5.236;2022-12-18T06:36:40;102553.0;;;-5.98;85.45
48892;BME280;50130;52.150;5.236;2022-12-18T06:39:52;102546.0;;;-6.05;85.2
48892;BME280;50130;52.150;5.236;2022-12-18T06:41:28;102543.0;;;-6.13;85.26
48892;BME280;50130;52.150;5.236;2022-12-18T06:43:05;102542.0;;;-6.04;85.4
48892;BME280;50130;52.150;5.236;2022-12-18T06:44:42;102542.0;;;-6.0;85.64
48892;BME280;50130;52.150;5.236;2022-12-18T06:47:55;102534.99999999999;;;-5.99;85.97
48892;BME280;50130;52.150;5.236;2022-12-18T06:49:31;102526.0;;;-5.97;86.44
48892;BME280;50130;52.150;5.236;2022-12-18T06:51:08;102519.0;;;-5.9;86.4
48892;BME280;50130;52.150;5.236;2022-12-18T06:54:20;102520.0;;;-5.88;86.25
48892;BME280;50130;52.150;5.236;2022-12-18T06:56:00;102519.0;;;-5.92;86.2
48892;BME280;50130;52.150;5.236;2022-12-18T06:57:37;102523.0;;;-5.89;86.01
48892;BME280;50130;52.150;5.236;2022-12-18T07:00:50;102514.00000000001;;;-5.93;85.69
48892;BME280;50130;52.150;5.236;2022-12-18T07:02:27;102514.00000000001;;;-5.91;86.23
48892;BME280;50130;52.150;5.236;2022-12-18T07:04:03;102513.00000000001;;;-5.97;85.73
48892;BME280;50130;52.150;5.236;2022-12-18T07:05:39;102513.00000000001;;;-5.92;85.68
48892;BME280;50130;52.150;5.236;2022-12-18T07:08:54;102506.0;;;-5.98;86.12
48892;BME280;50130;52.150;5.236;2022-12-18T07:10:31;102504.0;;;-5.97;86.16
48892;BME280;50130;52.150;5.236;2022-12-18T07:12:07;102498.0;;;-5.93;86.59
48892;BME280;50130;52.150;5.236;2022-12-18T07:15:20;102499.0;;;-5.79;86.61
48892;BME280;50130;52.150;5.236;2022-12-18T07:16:56;102493.0;;;-5.79;86.55
48892;BME280;50130;52.150;5.236;2022-12-18T07:18:32;102496.0;;;-5.72;86.87
48892;BME280;50130;52.150;5.236;2022-12-18T07:21:46;102495.0;;;-5.68;87.12
48892;BME280;50130;52.150;5.236;2022-12-18T07:23:22;102497.0;;;-5.68;86.62
48892;BME280;50130;52.150;5.236;2022-12-18T07:24:58;102493.0;;;-5.65;86.25
48892;BME280;50130;52.150;5.236;2022-12-18T07:26:35;102494.0;;;-5.73;86.11
48892;BME280;50130;52.150;5.236;2022-12-18T07:29:47;102493.0;;;-5.75;85.93
48892;BME280;50130;52.150;5.236;2022-12-18T07:31:24;102493.0;;;-5.73;85.91
48892;BME280;50130;52.150;5.236;2022-12-18T07:33:00;102484.99999999999;;;-5.74;85.77
48892;BME280;50130;52.150;5.236;2022-12-18T07:36:13;102483.0;;;-5.77;85.63
48892;BME280;50130;52.150;5.236;2022-12-18T07:37:50;102476.0;;;-5.71;85.61
48892;BME280;50130;52.150;5.236;2022-12-18T07:39:26;102470.0;;;-5.76;85.35
48892;BME280;50130;52.150;5.236;2022-12-18T07:44:17;102468.0;;;-5.73;86.11
48892;BME280;50130;52.150;5.236;2022-12-18T07:45:55;102459.99999999999;;;-5.74;86.02
48892;BME280;50130;52.150;5.236;2022-12-18T07:47:34;102458.99999999999;;;-5.79;85.8
48892;BME280;50130;52.150;5.236;2022-12-18T07:50:47;102452.0;;;-5.86;85.92
48892;BME280;50130;52.150;5.236;2022-12-18T07:52:22;102448.0;;;-5.89;86.19
48892;BME280;50130;52.150;5.236;2022-12-18T07:53:59;102445.0;;;-5.92;86.39
48892;BME280;50130;52.150;5.236;2022-12-18T07:57:11;102451.0;;;-5.82;86.79
48892;BME280;50130;52.150;5.236;2022-12-18T07:58:48;102448.0;;;-5.73;86.91
48892;BME280;50130;52.150;5.236;2022-12-18T08:00:24;102440.00000000001;;;-5.67;86.88
48892;BME280;50130;52.150;5.236;2022-12-18T08:03:38;102439.00000000001;;;-5.64;87.17
48892;BME280;50130;52.150;5.236;2022-12-18T08:05:14;102433.99999999999;;;-5.49;87.09
48892;BME280;50130;52.150;5.236;2022-12-18T08:06:51;102431.0;;;-5.49;87.28
48892;BME280;50130;52.150;5.236;2022-12-18T08:08:27;102429.0;;;-5.49;87.51
48892;BME280;50130;52.150;5.236;2022-12-18T08:11:42;102431.0;;;-5.4;87.09
48892;BME280;50130;52.150;5.236;2022-12-18T08:13:19;102430.0;;;-5.44;86.83
48892;BME280;50130;52.150;5.236;2022-12-18T08:14:54;102438.00000000001;;;-5.43;86.87
48892;BME280;50130;52.150;5.236;2022-12-18T08:18:07;102441.00000000001;;;-5.33;87.03
48892;BME280;50130;52.150;5.236;2022-12-18T08:19:43;102441.00000000001;;;-5.28;87.37
48892;BME280;50130;52.150;5.236;2022-12-18T08:21:21;102444.0;;;-5.1;87.73
48892;BME280;50130;52.150;5.236;2022-12-18T08:22:58;102450.0;;;-4.83;88.76
48892;BME280;50130;52.150;5.236;2022-12-18T08:26:10;102463.00000000001;;;-4.77;88.63
48892;BME280;50130;52.150;5.236;2022-12-18T08:27:47;102466.00000000001;;;-4.69;89.24
48892;BME280;50130;52.150;5.236;2022-12-18T08:29:24;102467.0;;;-4.69;89.13
48892;BME280;50130;52.150;5.236;2022-12-18T08:32:36;102459.99999999999;;;-4.67;88.8
48892;BME280;50130;52.150;5.236;2022-12-18T08:34:11;102466.00000000001;;;-4.72;88.14
48892;BME280;50130;52.150;5.236;2022-12-18T08:35:48;102471.0;;;-4.66;88.1
48892;BME280;50130;52.150;5.236;2022-12-18T08:39:00;102471.0;;;-4.6;88.12
48892;BME280;50130;52.150;5.236;2022-12-18T08:40:36;102477.0;;;-4.6;88.01
48892;BME280;50130;52.150;5.236;2022-12-18T08:43:48;102471.0;;;-4.58;88.25
48892;BME280;50130;52.150;5.236;2022-12-18T08:45:25;102463.00000000001;;;-4.59;88.17
48892;BME280;50130;52.150;5.236;2022-12-18T08:47:01;102458.0;;;-4.5;88.07
48892;BME280;50130;52.150;5.236;2022-12-18T08:48:37;102455.0;;;-4.44;88.07
48892;BME280;50130;52.150;5.236;2022-12-18T08:50:14;102446.0;;;-4.42;88.18
48892;BME280;50130;52.150;5.236;2022-12-18T08:53:30;102444.0;;;-4.44;88.59
48892;BME280;50130;52.150;5.236;2022-12-18T08:55:08;102442.0;;;-4.45;88.89
48892;BME280;50130;52.150;5.236;2022-12-18T08:56:44;102442.0;;;-4.29;88.79
48892;BME280;50130;52.150;5.236;2022-12-18T08:59:57;102452.0;;;-4.21;88.81
48892;BME280;50130;52.150;5.236;2022-12-18T09:01:33;102451.0;;;-4.06;89.05
48892;BME280;50130;52.150;5.236;2022-12-18T09:03:11;102449.0;;;-4.12;89.14
48892;BME280;50130;52.150;5.236;2022-12-18T09:04:48;102448.0;;;-4.06;89.37
48892;BME280;50130;52.150;5.236;2022-12-18T09:08:00;102441.00000000001;;;-3.95;89.04
48892;BME280;50130;52.150;5.236;2022-12-18T09:09:36;102441.00000000001;;;-3.93;89.08
48892;BME280;50130;52.150;5.236;2022-12-18T09:11:14;102446.0;;;-3.92;89.51
48892;BME280;50130;52.150;5.236;2022-12-18T09:14:30;102451.0;;;-3.81;89.48
48892;BME280;50130;52.150;5.236;2022-12-18T09:16:07;102457.0;;;-3.69;89.41
48892;BME280;50130;52.150;5.236;2022-12-18T09:17:43;102455.0;;;-3.52;89.55
48892;BME280;50130;52.150;5.236;2022-12-18T09:20:55;102450.0;;;-3.38;89.28
48892;BME280;50130;52.150;5.236;2022-12-18T09:22:31;102454.0;;;-3.34;89.44
48892;BME280;50130;52.150;5.236;2022-12-18T09:24:12;102455.0;;;-3.21;89.07
48892;BME280;50130;52.150;5.236;2022-12-18T09:25:49;102440.00000000001;;;-3.19;89.29
48892;BME280;50130;52.150;5.236;2022-12-18T09:29:02;102449.0;;;-3.11;89.19
48892;BME280;50130;52.150;5.236;2022-12-18T09:30:39;102446.0;;;-3.06;89.26
48892;BME280;50130;52.150;5.236;2022-12-18T09:32:16;102443.0;;;-3.08;89.36
48892;BME280;50130;52.150;5.236;2022-12-18T09:35:31;102436.99999999999;;;-2.96;89.13
48892;BME280;50130;52.150;5.236;2022-12-18T09:37:07;102429.0;;;-2.77;88.63
48892;BME280;50130;52.150;5.236;2022-12-18T09:38:43;102433.99999999999;;;-2.79;89.07
48892;BME280;50130;52.150;5.236;2022-12-18T09:40:23;102431.0;;;-2.75;88.85
48892;BME280;50130;52.150;5.236;2022-12-18T09:43:42;102425.0;;;-2.68;88.95
48892;BME280;50130;52.150;5.236;2022-12-18T09:45:21;102423.0;;;-2.7;89.23
48892;BME280;50130;52.150;5.236;2022-12-18T09:47:04;102429.0;;;-2.73;89.99
48892;BME280;50130;52.150;5.236;2022-12-18T09:48:48;102428.0;;;-2.69;90.0
48892;BME280;50130;52.150;5.236;2022-12-18T09:52:12;102426.0;;;-2.7;90.28
48892;BME280;50130;52.150;5.236;2022-12-18T09:53:55;102421.0;;;-2.58;90.31
48892;BME280;50130;52.150;5.236;2022-12-18T09:55:35;102416.00000000001;;;-2.48;89.81
48892;BME280;50130;52.150;5.236;2022-12-18T09:57:15;102417.0;;;-2.47;89.78
48892;BME280;50130;52.150;5.236;2022-12-18T10:00:35;102420.0;;;-2.45;90.08
48892;BME280;50130;52.150;5.236;2022-12-18T10:02:14;102408.0;;;-2.38;90.17
48892;BME280;50130;52.150;5.236;2022-12-18T10:03:53;102398.0;;;-2.39;90.3
48892;BME280;50130;52.150;5.236;2022-12-18T10:05:36;102401.0;;;-2.31;90.21
48892;BME280;50130;52.150;5.236;2022-12-18T10:09:15;102402.0;;;-2.28;90.18
48892;BME280;50130;52.150;5.236;2022-12-18T10:11:01;102395.0;;;-2.21;90.29
48892;BME280;50130;52.150;5.236;2022-12-18T10:12:49;102394.0;;;-2.25;90.57
48892;BME280;50130;52.150;5.236;2022-12-18T10:14:39;102396.0;;;-2.18;90.77
48892;BME280;50130;52.150;5.236;2022-12-18T10:16:19;102402.0;;;-2.12;90.57
48892;BME280;50130;52.150;5.236;2022-12-18T10:18:14;102415.00000000001;;;-2.03;90.22
48892;BME280;50130;52.150;5.236;2022-12-18T10:21:42;102417.0;;;-1.95;90.06
48892;BME280;50130;52.150;5.236;2022-12-18T10:23:28;102422.0;;;-1.83;89.66
48892;BME280;50130;52.150;5.236;2022-12-18T10:25:17;102422.0;;;-1.77;89.73
48892;BME280;50130;52.150;5.236;2022-12-18T10:26:59;102411.99999999999;;;-1.86;90.34
48892;BME280;50130;52.150;5.236;2022-12-18T10:28:45;102406.0;;;-1.84;90.17
48892;BME280;50130;52.150;5.236;2022-12-18T10:32:01;102393.0;;;-1.84;90.6
48892;BME280;50130;52.150;5.236;2022-12-18T10:33:38;102389.0;;;-1.77;90.37
48892;BME280;50130;52.150;5.236;2022-12-18T10:35:18;102393.0;;;-1.7;90.51
48892;BME280;50130;52.150;5.236;2022-12-18T10:36:55;102394.0;;;-1.63;90.15
48892;BME280;50130;52.150;5.236;2022-12-18T10:40:11;102393.0;;;-1.45;89.82
48892;BME280;50130;52.150;5.236;2022-12-18T10:41:49;102389.0;;;-1.51;89.19
48892;BME280;50130;52.150;5.236;2022-12-18T10:43:27;102377.0;;;-1.43;89.65
48892;BME280;50130;52.150;5.236;2022-12-18T10:46:52;102370.0;;;-1.45;89.48
48892;BME280;50130;52.150;5.236;2022-12-18T10:48:30;102360.0;;;-1.57;90.23
48892;BME280;50130;52.150;5.236;2022-12-18T10:50:18;102363.0;;;-1.54;90.66
48892;BME280;50130;52.150;5.236;2022-12-18T10:52:05;102370.0;;;-1.47;90.39
48892;BME280;50130;52.150;5.236;2022-12-18T10:53:52;102371.0;;;-1.46;90.56